Time;durP1;ratioP1;P1;durP2;ratioP2;P2;SDS_P1;SDS_P2;PMS_P1;PMS_P2;Temp;Humidity;BMP_temperature;BMP_pressure;BME280_temperature;BME280_humidity;BME280_pressure;Samples;Min_cycle;Max_cycle;Signal;HPM_P1;HPM_P2
2023/10/09 00:01:52;;;;;;;1999.90;999.90;;;13.10;99.90;;;;;;5103804;28;20776;-75
2023/10/09 00:04:20;;;;;;;1999.90;999.90;;;12.90;99.90;;;;;;5107600;28;20550;-75
2023/10/09 00:06:48;;;;;;;1999.90;999.90;;;12.80;99.90;;;;;;5107669;28;20424;-75
2023/10/09 00:09:19;;;;;;;1999.90;999.90;;;12.80;99.90;;;;;;5098820;28;20458;-75
2023/10/09 00:11:48;;;;;;;1999.90;999.90;;;12.80;99.90;;;;;;5104878;28;20434;-75
2023/10/09 00:14:15;;;;;;;1999.90;999.90;;;12.90;99.90;;;;;;5108066;28;20544;-75
2023/10/09 00:16:47;;;;;;;1999.90;999.90;;;13.20;99.90;;;;;;5108021;28;20428;-74
2023/10/09 00:19:17;;;;;;;1999.90;999.90;;;13.20;99.90;;;;;;5100545;28;20434;-75
2023/10/09 00:21:44;;;;;;;1999.90;999.90;;;13.00;99.90;;;;;;5104432;28;20429;-73
2023/10/09 00:24:23;;;;;;;1999.90;999.90;;;12.80;99.90;;;;;;5107938;28;20455;-75
2023/10/09 00:26:51;;;;;;;1999.90;999.90;;;12.90;99.90;;;;;;5104528;28;20473;-75
2023/10/09 00:29:21;;;;;;;1999.90;999.90;;;13.00;99.90;;;;;;5100850;28;20548;-73
2023/10/09 00:31:54;;;;;;;1999.90;999.90;;;13.20;99.90;;;;;;5103483;28;21013;-74
2023/10/09 00:34:26;;;;;;;1999.90;999.90;;;13.40;99.90;;;;;;5105794;28;20511;-75
2023/10/09 00:36:53;;;;;;;1999.90;999.90;;;13.20;99.90;;;;;;5106568;28;20945;-75
2023/10/09 00:39:43;;;;;;;1999.90;999.90;;;13.10;99.90;;;;;;5104295;28;20950;-75
2023/10/09 00:42:12;;;;;;;1999.90;999.90;;;13.10;99.90;;;;;;5100197;28;20433;-74
2023/10/09 00:44:41;;;;;;;1999.90;999.90;;;13.30;99.90;;;;;;5099373;28;20473;-75
2023/10/09 00:47:20;;;;;;;1999.90;999.90;;;13.30;99.90;;;;;;5110435;28;20431;-74
2023/10/09 00:49:49;;;;;;;1999.90;999.90;;;13.30;99.90;;;;;;5103738;28;20940;-75
2023/10/09 00:52:24;;;;;;;1999.90;999.90;;;13.20;99.90;;;;;;5110035;28;20423;-75
2023/10/09 00:54:52;;;;;;;1999.90;999.90;;;13.20;99.90;;;;;;5104789;28;20448;-73
2023/10/09 00:57:24;;;;;;;1999.90;999.90;;;12.90;99.90;;;;;;5109019;28;20475;-74
2023/10/09 00:59:59;;;;;;;1999.90;999.90;;;12.90;99.90;;;;;;5107481;28;20427;-72
2023/10/09 01:02:35;;;;;;;1999.90;999.90;;;12.90;99.90;;;;;;5108862;28;20423;-75
2023/10/09 01:05:12;;;;;;;1999.90;999.90;;;12.90;99.90;;;;;;5105026;28;20430;-76
2023/10/09 01:07:40;;;;;;;1999.90;999.90;;;13.40;99.90;;;;;;5106976;28;20420;-75
2023/10/09 01:10:11;;;;;;;1999.90;999.90;;;12.90;99.90;;;;;;5104423;28;20515;-75
2023/10/09 01:12:43;;;;;;;1999.90;999.90;;;13.20;99.90;;;;;;5104870;28;20501;-75
2023/10/09 01:15:18;;;;;;;1999.90;999.90;;;13.10;99.90;;;;;;5101834;28;20440;-75
2023/10/09 01:17:46;;;;;;;1999.90;999.90;;;13.30;99.90;;;;;;5104791;28;20416;-75
2023/10/09 01:20:16;;;;;;;1999.90;999.90;;;13.10;99.90;;;;;;5098689;28;20430;-75
2023/10/09 01:22:44;;;;;;;1999.90;999.90;;;12.90;99.90;;;;;;5109300;28;20427;-76
2023/10/09 01:25:12;;;;;;;1999.90;999.90;;;12.70;99.90;;;;;;5106911;28;20470;-75
2023/10/09 01:27:40;;;;;;;1999.90;999.90;;;12.40;99.90;;;;;;5109691;28;20420;-73
2023/10/09 01:30:13;;;;;;;1999.90;999.90;;;12.70;99.90;;;;;;5097569;28;20429;-75
2023/10/09 01:32:40;;;;;;;1999.90;999.90;;;12.70;99.90;;;;;;5105881;28;20431;-75
2023/10/09 01:35:21;;;;;;;1999.90;999.90;;;12.80;99.90;;;;;;5106253;28;20427;-74
2023/10/09 01:37:50;;;;;;;1999.90;999.90;;;12.80;99.90;;;;;;5105672;28;20424;-75
2023/10/09 01:40:25;;;;;;;1999.90;999.90;;;12.90;99.90;;;;;;5105303;28;20423;-75
2023/10/09 01:42:51;;;;;;;1999.90;999.90;;;12.70;99.90;;;;;;5102612;28;20433;-72
2023/10/09 01:45:27;;;;;;;1999.90;999.90;;;12.70;99.90;;;;;;5110089;28;20463;-76
2023/10/09 01:47:55;;;;;;;1999.90;999.90;;;12.70;99.90;;;;;;5106636;28;20467;-74
2023/10/09 01:50:24;;;;;;;1999.90;999.90;;;12.80;99.90;;;;;;5103671;28;20917;-74
2023/10/09 01:52:52;;;;;;;1999.90;999.90;;;12.70;99.90;;;;;;5110080;28;20435;-75
2023/10/09 01:55:33;;;;;;;1999.90;999.90;;;13.00;99.90;;;;;;5108518;28;20467;-74
2023/10/09 01:58:05;;;;;;;1999.90;999.90;;;12.90;99.90;;;;;;5108820;28;20844;-75
2023/10/09 02:00:41;;;;;;;1999.90;999.90;;;12.90;99.90;;;;;;5109713;28;20434;-74
2023/10/09 02:03:13;;;;;;;1999.90;999.90;;;13.10;99.90;;;;;;5108881;28;20439;-75
2023/10/09 02:05:39;;;;;;;1999.90;999.90;;;13.10;99.90;;;;;;5105240;28;20451;-75
2023/10/09 02:08:12;;;;;;;1999.90;999.90;;;13.10;99.90;;;;;;5107491;28;20426;-74
2023/10/09 02:10:47;;;;;;;1999.90;999.90;;;13.00;99.90;;;;;;5109145;28;20485;-74
2023/10/09 02:13:16;;;;;;;1999.90;999.90;;;12.80;99.90;;;;;;5107102;28;20487;-74
2023/10/09 02:15:58;;;;;;;1999.90;999.90;;;13.00;99.90;;;;;;5105499;28;20451;-75
2023/10/09 02:18:39;;;;;;;1999.90;999.90;;;12.90;99.90;;;;;;5103571;28;20424;-75
2023/10/09 02:21:13;;;;;;;1999.90;999.90;;;12.90;99.90;;;;;;5105429;28;20424;-75
2023/10/09 02:23:45;;;;;;;1999.90;999.90;;;13.00;99.90;;;;;;5110239;28;20941;-74
2023/10/09 02:26:19;;;;;;;1999.90;999.90;;;13.10;99.90;;;;;;5104227;28;20517;-75
2023/10/09 02:28:52;;;;;;;1999.90;999.90;;;13.10;99.90;;;;;;5104825;28;20432;-74
2023/10/09 02:31:22;;;;;;;1999.90;999.90;;;12.90;99.90;;;;;;5107711;28;20467;-75
2023/10/09 02:33:53;;;;;;;1999.90;999.90;;;12.90;99.90;;;;;;5101835;28;20428;-74
2023/10/09 02:36:20;;;;;;;1999.90;999.90;;;13.00;99.90;;;;;;5106285;28;20456;-74
2023/10/09 02:38:48;;;;;;;1999.90;999.90;;;13.30;99.90;;;;;;5105057;28;20424;-75
2023/10/09 02:41:22;;;;;;;1999.90;999.90;;;13.10;99.90;;;;;;5106759;28;20428;-75
2023/10/09 02:43:50;;;;;;;1999.90;999.90;;;13.10;99.90;;;;;;5101493;28;20430;-75
2023/10/09 02:46:20;;;;;;;1999.90;999.90;;;13.10;99.90;;;;;;5105913;28;20497;-75
2023/10/09 02:48:50;;;;;;;1999.90;999.90;;;13.10;99.90;;;;;;5105976;28;20428;-75
2023/10/09 02:51:31;;;;;;;1999.90;999.90;;;13.00;99.90;;;;;;5100998;28;20901;-74
2023/10/09 02:54:06;;;;;;;1999.90;999.90;;;13.10;99.90;;;;;;5103791;28;20451;-75
2023/10/09 02:56:42;;;;;;;1999.90;999.90;;;13.00;99.90;;;;;;5100595;28;20482;-75
2023/10/09 02:59:09;;;;;;;1999.90;999.90;;;12.90;99.90;;;;;;5101971;28;20796;-75
2023/10/09 03:01:37;;;;;;;1999.90;999.90;;;12.90;99.90;;;;;;5109080;28;20456;-74
2023/10/09 03:04:05;;;;;;;1999.90;999.90;;;12.90;99.90;;;;;;5107935;28;20515;-74
2023/10/09 03:06:34;;;;;;;1999.90;999.90;;;12.90;99.90;;;;;;5103764;28;20428;-74
2023/10/09 03:09:01;;;;;;;1999.90;999.90;;;12.90;99.90;;;;;;5103378;28;20499;-75
2023/10/09 03:11:27;;;;;;;1999.90;999.90;;;13.00;99.90;;;;;;5101511;28;20509;-75
2023/10/09 03:13:55;;;;;;;1999.90;999.90;;;13.00;99.90;;;;;;5104422;28;20431;-74
2023/10/09 03:16:22;;;;;;;1999.90;999.90;;;13.00;99.90;;;;;;5108547;28;20861;-74
2023/10/09 03:18:53;;;;;;;1999.90;999.90;;;13.10;99.90;;;;;;5098782;28;20499;-74
2023/10/09 03:21:20;;;;;;;1999.90;999.90;;;13.00;99.90;;;;;;5101077;28;20993;-74
2023/10/09 03:23:49;;;;;;;1999.90;999.90;;;12.90;99.90;;;;;;5101792;28;20536;-74
2023/10/09 03:26:17;;;;;;;1999.90;999.90;;;12.80;99.90;;;;;;5105146;28;20434;-75
2023/10/09 03:28:45;;;;;;;1999.90;999.90;;;12.90;99.90;;;;;;5104951;28;20933;-74
2023/10/09 03:31:13;;;;;;;1999.90;999.90;;;12.80;99.90;;;;;;5096655;28;20440;-74
2023/10/09 03:33:39;;;;;;;1999.90;999.90;;;12.60;99.90;;;;;;5099809;28;20432;-74
2023/10/09 03:36:09;;;;;;;1999.90;999.90;;;12.70;99.90;;;;;;5099896;28;20424;-74
2023/10/09 03:38:36;;;;;;;1999.90;999.90;;;12.70;99.90;;;;;;5097582;28;20430;-75
2023/10/09 03:41:06;;;;;;;1999.90;999.90;;;13.40;99.90;;;;;;5106872;28;20798;-74
2023/10/09 03:43:37;;;;;;;1999.90;999.90;;;12.90;99.90;;;;;;5103160;28;20452;-74
2023/10/09 03:46:05;;;;;;;1999.90;999.90;;;12.90;99.90;;;;;;5104645;28;20473;-74
2023/10/09 03:48:36;;;;;;;1999.90;999.90;;;12.80;99.90;;;;;;5094979;28;20923;-74
2023/10/09 03:51:08;;;;;;;1999.90;999.90;;;12.80;99.90;;;;;;5104042;28;20424;-74
2023/10/09 03:53:37;;;;;;;1999.90;999.90;;;13.10;99.90;;;;;;5108128;28;20431;-74
2023/10/09 03:56:11;;;;;;;1999.90;999.90;;;13.10;99.90;;;;;;5101633;28;20427;-74
2023/10/09 03:58:39;;;;;;;1999.90;999.90;;;13.10;99.90;;;;;;5100838;28;20424;-74
2023/10/09 04:01:10;;;;;;;1999.90;999.90;;;13.00;99.90;;;;;;5108996;28;20428;-74
2023/10/09 04:03:38;;;;;;;1999.90;999.90;;;12.80;99.90;;;;;;5097394;28;20430;-74
2023/10/09 04:06:09;;;;;;;1999.90;999.90;;;12.80;99.90;;;;;;5105979;28;20795;-74
2023/10/09 04:08:39;;;;;;;1999.90;999.90;;;12.60;99.90;;;;;;5102956;28;20471;-74
2023/10/09 04:11:15;;;;;;;1999.90;999.90;;;12.50;99.90;;;;;;5108117;28;20428;-74
2023/10/09 04:13:45;;;;;;;1999.90;999.90;;;12.70;99.90;;;;;;5099622;28;20441;-74
2023/10/09 04:16:33;;;;;;;1999.90;999.90;;;12.60;99.90;;;;;;5094800;28;20915;-74
2023/10/09 04:19:06;;;;;;;1999.90;999.90;;;12.60;99.90;;;;;;5099043;28;20457;-74
2023/10/09 04:21:36;;;;;;;1999.90;999.90;;;12.60;99.90;;;;;;5108619;28;20431;-74
2023/10/09 04:26:47;;;;;;;1999.90;999.90;;;12.70;99.90;;;;;;5098569;28;20427;-74
2023/10/09 04:29:18;;;;;;;1999.90;999.90;;;12.80;99.90;;;;;;5095867;28;20432;-74
2023/10/09 04:31:51;;;;;;;1999.90;999.90;;;12.90;99.90;;;;;;5106600;28;20556;-74
2023/10/09 04:34:22;;;;;;;1999.90;999.90;;;13.10;99.90;;;;;;5098362;28;20510;-74
2023/10/09 04:36:51;;;;;;;1999.90;999.90;;;13.10;99.90;;;;;;5107371;28;20477;-74
2023/10/09 04:44:58;;;;;;;1999.90;999.90;;;13.20;99.90;;;;;;5099288;28;20419;-74
2023/10/09 04:47:35;;;;;;;1999.90;999.90;;;13.00;99.90;;;;;;5103771;28;20423;-73
2023/10/09 04:50:11;;;;;;;1999.90;999.90;;;13.00;99.90;;;;;;5099152;28;20416;-74
2023/10/09 04:52:52;;;;;;;1999.90;999.90;;;12.90;99.90;;;;;;5102784;28;20424;-74
2023/10/09 04:55:20;;;;;;;1999.90;999.90;;;12.90;99.90;;;;;;5094775;28;20530;-74
2023/10/09 04:58:00;;;;;;;1999.90;999.90;;;12.90;99.90;;;;;;5094112;28;20504;-74
2023/10/09 05:03:11;;;;;;;1999.90;999.90;;;13.00;99.90;;;;;;5104604;28;20476;-74
2023/10/09 05:05:58;;;;;;;1999.90;999.90;;;13.20;99.90;;;;;;5096348;28;20451;-74
2023/10/09 05:08:28;;;;;;;1999.90;999.90;;;13.00;99.90;;;;;;5096813;28;20445;-74
2023/10/09 05:11:15;;;;;;;1999.90;999.90;;;12.90;99.90;;;;;;5105461;28;20420;-73
2023/10/09 05:13:44;;;;;;;1999.90;999.90;;;12.90;99.90;;;;;;5106727;28;20459;-74
2023/10/09 05:16:18;;;;;;;1999.90;999.90;;;12.80;99.90;;;;;;5103713;28;20421;-74
2023/10/09 05:18:55;;;;;;;1999.90;999.90;;;12.80;99.90;;;;;;5094431;28;20457;-72
2023/10/09 05:21:44;;;;;;;1999.90;999.90;;;13.00;99.90;;;;;;5102077;28;20504;-74
2023/10/09 05:24:19;;;;;;;1999.90;999.90;;;13.00;99.90;;;;;;5099981;28;20427;-75
2023/10/09 05:26:52;;;;;;;1999.90;999.90;;;13.10;99.90;;;;;;5107522;28;20431;-74
2023/10/09 05:29:34;;;;;;;1999.90;999.90;;;13.00;99.90;;;;;;5094541;28;20474;-74
2023/10/09 05:32:03;;;;;;;1999.90;999.90;;;13.10;99.90;;;;;;5102102;28;20610;-74
2023/10/09 05:34:34;;;;;;;1999.90;999.90;;;13.30;99.90;;;;;;5098017;28;20417;-74
2023/10/09 05:37:16;;;;;;;1999.90;999.90;;;13.40;99.90;;;;;;5098512;28;20427;-74
2023/10/09 05:39:58;;;;;;;1999.90;999.90;;;13.50;99.90;;;;;;5101970;28;20489;-74
2023/10/09 05:42:28;;;;;;;1999.90;999.90;;;13.70;99.90;;;;;;5103201;28;20721;-74
2023/10/09 05:47:47;;;;;;;1999.90;999.90;;;14.00;99.90;;;;;;5100192;28;20436;-74
2023/10/09 05:53:26;;;;;;;1999.90;999.90;;;14.30;99.90;;;;;;5110004;28;20441;-74
2023/10/09 06:01:05;;;;;;;1999.90;999.90;;;14.60;99.90;;;;;;5099199;28;20429;-73
2023/10/09 06:04:33;;;;;;;1999.90;999.90;;;14.70;99.90;;;;;;5098533;28;20490;-73
2023/10/09 06:07:11;;;;;;;1999.90;999.90;;;14.90;99.90;;;;;;5102746;28;20478;-73
2023/10/09 06:09:52;;;;;;;1999.90;999.90;;;15.00;99.90;;;;;;5105687;28;20427;-74
2023/10/09 06:15:31;;;;;;;1999.90;999.90;;;14.90;99.90;;;;;;5098344;27;20380;-71
2023/10/09 06:18:25;;;;;;;1999.90;999.90;;;14.90;99.90;;;;;;5091072;28;20514;-73
2023/10/09 06:23:50;;;;;;;1999.90;999.90;;;14.90;99.90;;;;;;5084582;28;20466;-73
2023/10/09 06:26:24;;;;;;;1999.90;999.90;;;14.90;99.90;;;;;;5087572;28;21003;-73
2023/10/09 06:29:13;;;;;;;1999.90;999.90;;;14.80;99.90;;;;;;5084606;28;20431;-73
2023/10/09 06:34:32;;;;;;;1999.90;999.90;;;14.90;99.90;;;;;;5091513;28;20422;-73
2023/10/09 06:37:05;;;;;;;1999.90;999.90;;;14.90;99.90;;;;;;5082662;28;21447;-73
2023/10/09 06:45:00;;;;;;;1999.90;999.90;;;15.00;99.90;;;;;;5082080;28;20502;-73
2023/10/09 06:47:28;;;;;;;1999.90;999.90;;;15.10;99.90;;;;;;5086378;28;20524;-73
2023/10/09 06:55:32;;;;;;;1999.90;999.90;;;15.10;99.90;;;;;;5083350;28;20421;-73
2023/10/09 06:58:01;;;;;;;1999.90;999.90;;;15.10;99.90;;;;;;5100961;28;20473;-74
2023/10/09 07:03:14;;;;;;;1999.90;999.90;;;15.00;99.90;;;;;;5084943;28;20429;-74
2023/10/09 07:06:00;;;;;;;1999.90;999.90;;;15.00;99.90;;;;;;5084534;28;20423;-72
2023/10/09 07:08:32;;;;;;;1999.90;999.90;;;15.10;99.90;;;;;;5087162;28;20912;-73
2023/10/09 07:11:20;;;;;;;1999.90;999.90;;;15.00;99.90;;;;;;5083158;28;20431;-72
2023/10/09 07:13:53;;;;;;;1999.90;999.90;;;15.10;99.90;;;;;;5095834;28;20438;-73
2023/10/09 07:16:23;;;;;;;1999.90;999.90;;;15.10;99.90;;;;;;5107667;28;20426;-73
2023/10/09 07:18:54;;;;;;;1999.90;999.90;;;15.10;99.90;;;;;;5100628;28;20924;-72
2023/10/09 07:21:27;;;;;;;1999.90;999.90;;;15.10;99.90;;;;;;5100651;28;20427;-73
2023/10/09 07:23:56;;;;;;;1999.90;999.90;;;15.00;99.90;;;;;;5108908;28;20791;-73
2023/10/09 07:26:36;;;;;;;1999.90;999.90;;;15.10;99.90;;;;;;5092588;28;20430;-73
2023/10/09 07:29:16;;;;;;;1999.90;999.90;;;15.20;99.90;;;;;;5089128;28;20560;-73
2023/10/09 07:31:45;;;;;;;1999.90;999.90;;;15.20;99.90;;;;;;5094838;28;20434;-73
2023/10/09 07:34:32;;;;;;;1999.90;999.90;;;15.20;99.90;;;;;;5095044;28;20842;-73
2023/10/09 07:37:03;;;;;;;1999.90;999.90;;;15.30;99.90;;;;;;5101255;28;20426;-73
2023/10/09 07:39:35;;;;;;;1999.90;999.90;;;15.30;99.90;;;;;;5093976;28;20441;-73
2023/10/09 07:42:19;;;;;;;1999.90;999.90;;;15.30;99.90;;;;;;5091218;28;20437;-74
2023/10/09 07:44:52;;;;;;;1999.90;999.90;;;15.30;99.90;;;;;;5083832;28;20955;-73
2023/10/09 07:50:03;;;;;;;1999.90;999.90;;;15.50;99.90;;;;;;5094434;28;20426;-73
2023/10/09 07:52:30;;;;;;;1999.90;999.90;;;15.60;99.90;;;;;;5089673;28;20457;-73
2023/10/09 07:55:03;;;;;;;1999.90;999.90;;;15.70;99.90;;;;;;5090120;28;20795;-73
2023/10/09 07:57:38;;;;;;;1999.90;999.90;;;15.70;99.90;;;;;;5084904;28;20460;-73
2023/10/09 08:00:36;;;;;;;1999.90;999.90;;;15.70;99.90;;;;;;5090874;28;20438;-73
2023/10/09 08:03:01;;;;;;;1999.90;999.90;;;15.80;99.90;;;;;;5089429;28;20978;-73
2023/10/09 08:05:34;;;;;;;1999.90;999.90;;;15.90;99.90;;;;;;5091269;28;20441;-73
2023/10/09 08:08:29;;;;;;;1999.90;999.90;;;15.90;99.90;;;;;;5091026;28;20475;-73
2023/10/09 08:13:56;;;;;;;1999.90;999.90;;;15.90;99.90;;;;;;5091958;28;20787;-73
2023/10/09 08:16:24;;;;;;;1999.90;999.90;;;15.90;99.90;;;;;;5091753;28;20471;-73
2023/10/09 08:18:51;;;;;;;1999.90;999.90;;;15.90;99.90;;;;;;5091555;28;20433;-73
2023/10/09 08:21:41;;;;;;;1999.90;999.90;;;15.90;99.90;;;;;;5091859;28;20427;-73
2023/10/09 08:24:35;;;;;;;1999.90;999.90;;;15.80;99.90;;;;;;5110882;28;20502;-74
2023/10/09 08:27:28;;;;;;;1999.90;999.90;;;15.70;99.90;;;;;;5096642;28;20418;-72
2023/10/09 08:29:46;;;;;;;1999.90;999.90;;;15.60;99.90;;;;;;5088511;28;20422;-73
2023/10/09 08:32:26;;;;;;;1999.90;999.90;;;15.60;99.90;;;;;;5091227;28;20412;-73
2023/10/09 08:34:53;;;;;;;1999.90;999.90;;;15.60;99.90;;;;;;5087286;28;20429;-72
2023/10/09 08:37:25;;;;;;;1999.90;999.90;;;15.60;99.90;;;;;;5085524;28;20993;-73
2023/10/09 08:39:51;;;;;;;1999.90;999.90;;;15.70;99.90;;;;;;5093972;28;20430;-73
2023/10/09 08:42:19;;;;;;;1999.90;999.90;;;15.70;99.90;;;;;;5085082;28;20426;-73
2023/10/09 08:44:49;;;;;;;1999.90;999.90;;;15.80;99.90;;;;;;5090337;28;20433;-73
2023/10/09 08:47:16;;;;;;;1999.90;999.90;;;15.90;99.90;;;;;;5100378;28;20507;-73
2023/10/09 08:49:43;;;;;;;1999.90;999.90;;;16.00;99.90;;;;;;5091769;28;20410;-73
2023/10/09 08:52:10;;;;;;;1999.90;999.90;;;16.10;99.90;;;;;;5110894;28;20409;-73
2023/10/09 08:54:38;;;;;;;1999.90;999.90;;;16.30;99.90;;;;;;5111678;28;21002;-73
2023/10/09 08:57:09;;;;;;;1999.90;999.90;;;16.30;99.90;;;;;;5096414;28;20437;-73
2023/10/09 08:59:42;;;;;;;1999.90;999.90;;;16.40;99.90;;;;;;5097308;28;20786;-73
2023/10/09 09:02:11;;;;;;;1999.90;999.90;;;16.50;99.90;;;;;;5111973;28;20412;-73
2023/10/09 09:04:39;;;;;;;1999.90;999.90;;;16.60;99.90;;;;;;5085666;28;20518;-73
2023/10/09 09:07:06;;;;;;;1999.90;999.90;;;16.60;99.90;;;;;;5092017;28;20991;-73
2023/10/09 09:09:34;;;;;;;1999.90;999.90;;;16.80;99.90;;;;;;5090871;28;20489;-73
2023/10/09 09:12:02;;;;;;;1999.90;999.90;;;16.90;99.90;;;;;;5092268;28;20437;-73
2023/10/09 09:14:38;;;;;;;1999.90;999.90;;;17.00;99.90;;;;;;5090198;28;20426;-73
2023/10/09 09:17:06;;;;;;;1999.90;999.90;;;17.10;99.90;;;;;;5085902;28;20431;-74
2023/10/09 09:19:37;;;;;;;1999.90;999.90;;;17.20;99.90;;;;;;5087562;28;20990;-73
2023/10/09 09:22:12;;;;;;;1999.90;999.90;;;17.20;99.90;;;;;;5103518;28;20438;-72
2023/10/09 09:24:45;;;;;;;1999.90;999.90;;;17.30;99.90;;;;;;5098276;28;20423;-73
2023/10/09 09:27:18;;;;;;;1999.90;999.90;;;17.40;99.90;;;;;;5086325;28;20468;-73
2023/10/09 09:29:52;;;;;;;1999.90;999.90;;;17.60;99.90;;;;;;5085745;28;20441;-72
2023/10/09 09:32:29;;;;;;;1999.90;999.90;;;17.70;99.90;;;;;;5092090;28;20504;-73
2023/10/09 09:34:59;;;;;;;1999.90;999.90;;;17.70;99.90;;;;;;5095488;28;20433;-73
2023/10/09 09:37:29;;;;;;;1999.90;999.90;;;17.80;99.90;;;;;;5091841;28;20426;-72
2023/10/09 09:40:00;;;;;;;1999.90;999.90;;;17.80;99.90;;;;;;5091955;28;20417;-74
2023/10/09 09:42:31;;;;;;;1999.90;999.90;;;17.90;99.90;;;;;;5103807;28;20886;-73
2023/10/09 09:45:01;;;;;;;1999.90;999.90;;;18.00;99.90;;;;;;5108726;28;20401;-73
2023/10/09 09:47:29;;;;;;;1999.90;999.90;;;18.00;99.90;;;;;;5083933;28;20433;-72
2023/10/09 09:50:00;;;;;;;1999.90;999.90;;;18.00;99.90;;;;;;5090407;28;20834;-72
2023/10/09 09:52:37;;;;;;;1999.90;999.90;;;18.20;99.90;;;;;;5099171;28;20406;-72
2023/10/09 09:55:07;;;;;;;1999.90;999.90;;;18.30;99.90;;;;;;5098021;28;20528;-73
2023/10/09 09:57:39;;;;;;;1999.90;999.90;;;18.30;99.90;;;;;;5090376;28;20421;-73
2023/10/09 10:00:26;;;;;;;1999.90;999.90;;;18.30;99.90;;;;;;5100743;28;20423;-73
2023/10/09 10:02:58;;;;;;;1999.90;999.90;;;18.20;99.90;;;;;;5110972;28;20412;-73
2023/10/09 10:05:29;;;;;;;1999.90;999.90;;;18.10;99.90;;;;;;5104432;28;21251;-73
2023/10/09 10:07:58;;;;;;;1999.90;999.90;;;18.10;99.90;;;;;;5091060;28;20834;-73
2023/10/09 10:10:39;;;;;;;1999.90;999.90;;;18.10;99.90;;;;;;5089956;28;20522;-73
2023/10/09 10:13:21;;;;;;;1999.90;999.90;;;18.20;99.90;;;;;;5100297;28;20423;-72
2023/10/09 10:16:13;;;;;;;1999.90;999.90;;;18.30;99.90;;;;;;5099077;28;20434;-73
2023/10/09 10:19:21;;;;;;;1999.90;999.90;;;18.20;99.90;;;;;;5082798;28;20456;-72
2023/10/09 10:21:49;;;;;;;1999.90;999.90;;;18.30;99.90;;;;;;5090814;28;20513;-73
2023/10/09 10:24:54;;;;;;;1999.90;999.90;;;18.30;99.90;;;;;;5094298;28;20431;-73
2023/10/09 10:27:26;;;;;;;1999.90;999.90;;;18.30;99.90;;;;;;5089730;28;20441;-73
2023/10/09 10:30:33;;;;;;;1999.90;999.90;;;18.20;99.90;;;;;;5092002;28;20425;-72
2023/10/09 10:33:09;;;;;;;1999.90;999.90;;;18.30;99.90;;;;;;5094008;28;20475;-71
2023/10/09 10:35:45;;;;;;;1999.90;999.90;;;18.30;99.90;;;;;;5087715;28;20426;-73
2023/10/09 10:38:39;;;;;;;1999.90;999.90;;;18.40;99.90;;;;;;5109639;28;20477;-72
2023/10/09 10:41:13;;;;;;;1999.90;999.90;;;18.20;99.90;;;;;;5110412;28;20412;-74
2023/10/09 10:43:59;;;;;;;1999.90;999.90;;;18.20;99.90;;;;;;5102150;28;20430;-73
2023/10/09 10:46:37;;;;;;;1999.90;999.90;;;18.30;99.90;;;;;;5088179;28;20443;-73
2023/10/09 10:49:16;;;;;;;1999.90;999.90;;;18.10;99.90;;;;;;5091547;28;20402;-72
2023/10/09 10:51:48;;;;;;;1999.90;999.90;;;17.50;99.90;;;;;;5110438;28;20408;-73
2023/10/09 10:57:52;;;;;;;1999.90;999.90;;;16.70;99.90;;;;;;5089377;28;20410;-73
2023/10/09 11:03:13;;;;;;;1999.90;999.90;;;16.70;99.90;;;;;;5113888;28;20488;-73
2023/10/09 11:05:42;;;;;;;1999.90;999.90;;;16.30;99.90;;;;;;5090432;28;20493;-73
2023/10/09 11:08:11;;;;;;;1999.90;999.90;;;16.20;99.90;;;;;;5104207;28;20415;-73
2023/10/09 11:10:49;;;;;;;1999.90;999.90;;;16.20;99.90;;;;;;5113787;28;20412;-73
2023/10/09 11:13:35;;;;;;;1999.90;999.90;;;16.10;99.90;;;;;;5111905;28;20477;-71
2023/10/09 11:16:28;;;;;;;1999.90;999.90;;;16.10;99.90;;;;;;5095422;28;20457;-71
2023/10/09 11:19:04;;;;;;;1999.90;999.90;;;16.00;99.90;;;;;;5091282;28;21183;-70
2023/10/09 11:21:40;;;;;;;1999.90;999.90;;;16.00;99.90;;;;;;5098499;28;20471;-71
2023/10/09 11:24:26;;;;;;;1999.90;999.90;;;16.00;99.90;;;;;;5096940;28;20439;-72
2023/10/09 11:26:56;;;;;;;1999.90;999.90;;;16.10;99.90;;;;;;5091561;28;20431;-71
2023/10/09 11:29:52;;;;;;;1999.90;999.90;;;16.10;99.90;;;;;;5088147;28;20486;-72
2023/10/09 11:32:19;;;;;;;1999.90;999.90;;;16.20;99.90;;;;;;5092329;28;21001;-72
2023/10/09 11:34:52;;;;;;;1999.90;999.90;;;16.10;99.90;;;;;;5091033;28;20428;-71
2023/10/09 11:37:38;;;;;;;1999.90;999.90;;;16.20;99.90;;;;;;5092098;28;20482;-71
2023/10/09 11:40:21;;;;;;;1999.90;999.90;;;16.20;99.90;;;;;;5090627;28;20954;-72
2023/10/09 11:42:50;;;;;;;1999.90;999.90;;;16.10;99.90;;;;;;5087021;28;20436;-72
2023/10/09 11:45:24;;;;;;;1999.90;999.90;;;16.20;99.90;;;;;;5100474;28;20427;-71
2023/10/09 11:47:57;;;;;;;1999.90;999.90;;;16.30;99.90;;;;;;5096836;28;20522;-69
2023/10/09 11:50:50;;;;;;;1999.90;999.90;;;16.30;99.90;;;;;;5088274;28;20461;-71
2023/10/09 11:53:19;;;;;;;1999.90;999.90;;;16.40;99.90;;;;;;5090595;28;20457;-71
2023/10/09 11:55:48;;;;;;;1999.90;999.90;;;16.50;99.90;;;;;;5095558;28;20436;-71
2023/10/09 11:58:22;;;;;;;1999.90;999.90;;;16.50;99.90;;;;;;5101786;28;20996;-71
2023/10/09 12:00:51;;;;;;;1999.90;999.90;;;16.40;99.90;;;;;;5097797;28;20453;-71
2023/10/09 12:03:21;;;;;;;1999.90;999.90;;;16.50;99.90;;;;;;5089926;28;20781;-71
2023/10/09 12:05:49;;;;;;;1999.90;999.90;;;16.60;99.90;;;;;;5096734;28;20441;-72
2023/10/09 12:08:16;;;;;;;1999.90;999.90;;;16.70;99.90;;;;;;5098457;28;20423;-72
2023/10/09 12:10:44;;;;;;;1999.90;999.90;;;16.80;99.90;;;;;;5093470;28;20422;-72
2023/10/09 12:13:10;;;;;;;1999.90;999.90;;;16.90;99.90;;;;;;5093838;28;20483;-73
2023/10/09 12:15:38;;;;;;;1999.90;999.90;;;16.90;99.90;;;;;;5097896;28;20438;-73
2023/10/09 12:18:14;;;;;;;1999.90;999.90;;;16.90;99.90;;;;;;5097785;28;20430;-73
2023/10/09 12:20:41;;;;;;;1999.90;999.90;;;16.90;99.90;;;;;;5095967;28;20430;-73
2023/10/09 12:23:14;;;;;;;1999.90;999.90;;;16.90;99.90;;;;;;5092168;28;20825;-73
2023/10/09 12:25:44;;;;;;;1999.90;999.90;;;16.90;99.90;;;;;;5093161;28;20433;-73
2023/10/09 12:28:12;;;;;;;1999.90;999.90;;;17.00;99.90;;;;;;5098221;28;20937;-73
2023/10/09 12:30:39;;;;;;;1999.90;999.90;;;16.90;99.90;;;;;;5090281;28;20471;-73
2023/10/09 12:33:08;;;;;;;1999.90;999.90;;;16.90;99.90;;;;;;5091931;28;20429;-72
2023/10/09 12:35:37;;;;;;;1999.90;999.90;;;16.90;99.90;;;;;;5092261;28;20421;-72
2023/10/09 12:38:08;;;;;;;1999.90;999.90;;;16.90;99.90;;;;;;5093151;28;20432;-73
2023/10/09 12:40:38;;;;;;;1999.90;999.90;;;16.80;99.90;;;;;;5100485;28;20446;-73
2023/10/09 12:43:05;;;;;;;1999.90;999.90;;;16.70;99.90;;;;;;5099335;28;20457;-72
2023/10/09 12:45:35;;;;;;;1999.90;999.90;;;16.80;99.90;;;;;;5095869;28;20429;-73
2023/10/09 12:48:08;;;;;;;1999.90;999.90;;;16.90;99.90;;;;;;5086862;28;20502;-73
2023/10/09 12:50:41;;;;;;;1999.90;999.90;;;16.90;99.90;;;;;;5097850;28;20428;-71
2023/10/09 12:53:10;;;;;;;1999.90;999.90;;;17.00;99.90;;;;;;5093396;28;20502;-73
2023/10/09 12:55:40;;;;;;;1999.90;999.90;;;17.00;99.90;;;;;;5098717;28;20435;-73
2023/10/09 12:58:08;;;;;;;1999.90;999.90;;;17.00;99.90;;;;;;5082214;28;21011;-73
2023/10/09 13:00:37;;;;;;;1999.90;999.90;;;17.00;99.90;;;;;;5089321;28;20420;-73
2023/10/09 13:03:16;;;;;;;1999.90;999.90;;;17.00;99.90;;;;;;5091941;28;20942;-71
2023/10/09 13:05:51;;;;;;;1999.90;999.90;;;17.10;99.90;;;;;;5096824;28;20438;-71
2023/10/09 13:08:21;;;;;;;1999.90;999.90;;;17.20;99.90;;;;;;5100995;28;20459;-72
2023/10/09 13:10:58;;;;;;;1999.90;999.90;;;17.10;99.90;;;;;;5084919;28;20429;-73
2023/10/09 13:13:26;;;;;;;1999.90;999.90;;;17.20;99.90;;;;;;5088945;28;20423;-72
2023/10/09 13:15:53;;;;;;;1999.90;999.90;;;17.70;99.90;;;;;;5093315;28;20438;-72
2023/10/09 13:18:20;;;;;;;1999.90;999.90;;;17.20;99.90;;;;;;5092515;28;20431;-73
2023/10/09 13:20:46;;;;;;;1999.90;999.90;;;17.20;99.90;;;;;;5093633;28;20452;-72
2023/10/09 13:23:17;;;;;;;1999.90;999.90;;;17.20;99.90;;;;;;5089675;28;20440;-72
2023/10/09 13:25:44;;;;;;;1999.90;999.90;;;17.10;99.90;;;;;;5092925;28;20491;-71